Share

Quito, Ecuador

Yanahuaico (IPICHINC3) Elev 8675 ft | 0.36 °S, 78.50 °W | Change Station

Current weather conditions updated 1 minute ago

Mostly Cloudy
Mostly Cloudy
50.1 °F
Feels Like 50.1 °F
N
0.0
Wind Variable Wind from WSW
Gusts 0.0 mph
Sunrise 6:10 AM
Sunset 6:16 PM
Moon Waning Gibbous

Today is forecast to be Cooler than yesterday. Afternoon thunderstorms.

Pressure 30.39 in
Visibility 6.2 miles
Clouds Mostly Cloudy 1500 ft
Dew Point 48 °F
Humidity 94%
Rainfall 0.00 in
Snow Depth Not available.
UV 0 out of 16
Pollen Not available.
Air Quality Not available.
Flu Activity Not available.
METAR SELT 170600Z 12002KT 9999 BKN015 10/10 Q1029

More Conditions Fewer Conditions

Pressure 30.39 in
Visibility 6.2 miles
Clouds Mostly Cloudy 1500 ft
Dew Point 48 °F
Humidity 94%
Rainfall 0.00 in
Snow Depth Not available.
UV 0 out of 16
Pollen Not available.
Air Quality Not available.
Flu Activity Not available.
METAR SELT 170600Z 12002KT 9999 BKN015 10/10 Q1029

More Conditions Fewer Conditions

10-Day Forecast

Almanac

Astronomy

Apr. 17, 2014 Rise Set
Actual Time 6:10 AM ECT 6:16 PM ECT
Civil Twilight 5:49 AM ECT 6:37 PM ECT
Nautical Twilight 5:24 AM ECT 7:02 PM ECT
Astronomical Twilight 5:00 AM ECT 7:26 PM ECT
Moon 8:32 PM ECT 8:04 AM ECT
Length of Visible Light 12h 48m
Length of Day
12h 06m
Tomorrow will be 0m 1s shorter.
Waning Gibbous, 96% of the Moon is Illuminated
Today
Waning Gibbous
Apr 22
Last Quarter
Apr 29
New
May 6
First Quarter
May 14
Full

Yesterday's Extremes

Country Highs Country Lows

Community

  • Sunset over the Bay
    Sunset over the Bay
  • symphony in blue....
    symphony in blue....
  • Dawn Surprise
    Dawn Surprise
  • Yucca delight
    Yucca delight
  • Sunset inside of the Ocean
    Sunset inside of the Ocean

WunderPhotos

Upload Photos

1,701,872 photos uploaded!

WunderBlogs® & News

Nearby

Snow Depth

Not available.

Coastal Water Temperatures

Place Temperature
No Stations Reporting

Earthquake Activity

City Distance Mag. Time & Date
No recent earthquake activity has been reported nearby.
Minimum magnitude displayed is 2.5.

Nearby Weather Stations

Station Location Temp. Dew Point Humidity Wind Precip. Elev Updated Type
Yanahuaico, Quito 50.1 °F 48 °F 94% WSW  at  0.0 mph 0.00 in / hr 8675 ft 1:08 AM ECT Normal

Show More Stations Show Fewer Stations

What do you think?

We're not finished. Please let us know what you like, what you don't like, and what you are still missing.